createdAt,value
2023-07-18T00:00:45.624Z,40.90
2023-07-18T00:04:10.544Z,40.90
2023-07-18T00:07:34.222Z,40.90
2023-07-18T00:10:59.360Z,40.80
2023-07-18T00:14:24.401Z,41.00
2023-07-18T00:17:48.254Z,41.00
2023-07-18T00:21:13.512Z,41.10
2023-07-18T00:24:37.319Z,41.20
2023-07-18T00:28:02.241Z,41.20
2023-07-18T00:31:26.392Z,41.40
2023-07-18T00:34:50.921Z,41.40
2023-07-18T00:38:14.504Z,41.40
2023-07-18T00:41:38.231Z,41.60
2023-07-18T00:45:03.277Z,41.60
2023-07-18T00:48:29.429Z,41.70
2023-07-18T00:51:53.380Z,41.90
2023-07-18T00:55:17.664Z,41.90
2023-07-18T00:58:42.025Z,42.00
2023-07-18T01:02:08.183Z,42.00
2023-07-18T01:05:34.888Z,42.20
2023-07-18T01:08:58.537Z,42.20
2023-07-18T01:12:22.218Z,42.20
2023-07-18T01:15:45.838Z,42.40
2023-07-18T01:19:11.124Z,42.50
2023-07-18T01:22:37.632Z,42.50
2023-07-18T01:26:01.236Z,42.70
2023-07-18T01:29:25.258Z,42.80
2023-07-18T01:32:49.673Z,42.80
2023-07-18T01:36:13.457Z,42.90
2023-07-18T01:39:38.321Z,42.90
2023-07-18T01:43:02.477Z,43.20
2023-07-18T01:46:26.304Z,43.30
2023-07-18T01:49:49.842Z,43.50
2023-07-18T01:53:13.672Z,43.50
2023-07-18T01:56:39.368Z,43.60
2023-07-18T02:00:03.280Z,43.80
2023-07-18T02:03:27.159Z,44.50
2023-07-18T02:06:52.626Z,43.90
2023-07-18T02:10:18.069Z,44.00
2023-07-18T02:13:43.435Z,44.10
2023-07-18T02:17:09.879Z,44.20
2023-07-18T02:20:33.547Z,44.10
2023-07-18T02:23:57.486Z,44.20
2023-07-18T02:27:21.555Z,44.20
2023-07-18T02:30:47.439Z,44.30
2023-07-18T02:34:11.049Z,44.50
2023-07-18T02:37:35.374Z,44.50
2023-07-18T02:40:58.991Z,44.60
2023-07-18T02:44:22.561Z,44.70
2023-07-18T02:47:47.750Z,44.80
2023-07-18T02:51:11.704Z,44.90
2023-07-18T02:54:35.388Z,45.00
2023-07-18T02:57:59.444Z,44.90
2023-07-18T03:01:23.855Z,45.00
2023-07-18T03:04:50.847Z,45.00
2023-07-18T03:08:14.524Z,45.30
2023-07-18T03:11:38.051Z,45.00
2023-07-18T03:15:02.026Z,45.00
2023-07-18T03:18:26.019Z,45.20
2023-07-18T03:21:51.017Z,45.30
2023-07-18T03:25:15.276Z,45.40
2023-07-18T03:28:38.907Z,45.40
2023-07-18T03:32:03.057Z,45.40
2023-07-18T03:35:26.659Z,45.50
2023-07-18T03:38:52.204Z,45.70
2023-07-18T03:42:15.870Z,45.80
2023-07-18T03:45:39.454Z,45.90
2023-07-18T03:49:03.143Z,45.90
2023-07-18T03:52:26.852Z,46.60
2023-07-18T03:55:52.902Z,46.20
2023-07-18T03:59:17.356Z,46.50
2023-07-18T04:02:43.160Z,46.60
2023-07-18T04:06:09.991Z,47.00
2023-07-18T04:09:33.775Z,47.00
2023-07-18T04:12:58.845Z,47.40
2023-07-18T04:16:24.343Z,47.60
2023-07-18T04:19:49.893Z,47.60
2023-07-18T04:23:13.796Z,47.80
2023-07-18T04:26:37.588Z,47.80
2023-07-18T04:30:02.606Z,48.00
2023-07-18T04:33:26.928Z,48.20
2023-07-18T04:36:50.518Z,48.50
2023-07-18T04:40:14.613Z,48.50
2023-07-18T04:43:38.139Z,48.80
2023-07-18T04:47:03.064Z,48.80
2023-07-18T04:50:29.151Z,48.90
2023-07-18T04:53:54.147Z,49.00
2023-07-18T04:57:18.900Z,48.90
2023-07-18T05:00:42.796Z,48.90
2023-07-18T05:04:07.752Z,48.90
2023-07-18T05:07:31.401Z,48.80
2023-07-18T05:11:01.681Z,48.80
2023-07-18T05:14:25.336Z,48.60
2023-07-18T05:17:49.317Z,48.40
2023-07-18T05:21:14.994Z,48.10
2023-07-18T05:24:38.781Z,47.80
2023-07-18T05:28:02.534Z,47.60
2023-07-18T05:31:26.099Z,47.40
2023-07-18T05:34:50.832Z,47.10
2023-07-18T05:38:15.740Z,46.70
2023-07-18T05:41:39.221Z,46.40
2023-07-18T05:45:02.754Z,46.20
2023-07-18T05:48:26.381Z,46.10
2023-07-18T05:51:49.828Z,45.90
2023-07-18T05:55:15.121Z,45.60
2023-07-18T05:58:38.742Z,45.20
2023-07-18T06:02:04.145Z,45.00
2023-07-18T06:05:27.685Z,44.80
2023-07-18T06:08:51.892Z,44.30
2023-07-18T06:12:17.255Z,44.00
2023-07-18T06:15:41.093Z,43.70
2023-07-18T06:19:04.787Z,43.80
2023-07-18T06:22:28.293Z,43.30
2023-07-18T06:25:51.784Z,42.70
2023-07-18T06:29:16.891Z,42.20
2023-07-18T06:32:40.684Z,41.40
2023-07-18T06:36:04.768Z,41.10
2023-07-18T06:39:28.357Z,40.80
2023-07-18T06:42:51.878Z,40.50
2023-07-18T06:46:16.755Z,40.00
2023-07-18T06:49:40.730Z,39.40
2023-07-18T06:53:04.299Z,39.20
2023-07-18T06:56:27.785Z,39.10
2023-07-18T06:59:51.542Z,38.70
2023-07-18T07:03:16.590Z,38.30
2023-07-18T07:06:42.942Z,37.80
2023-07-18T07:10:09.937Z,37.60
2023-07-18T07:13:34.504Z,37.10
2023-07-18T07:17:00.031Z,36.70
2023-07-18T07:20:25.622Z,36.30
2023-07-18T07:23:49.268Z,36.00
2023-07-18T07:27:12.811Z,35.80
2023-07-18T07:30:36.530Z,35.30
2023-07-18T07:34:00.218Z,34.90
2023-07-18T07:37:25.247Z,34.60
2023-07-18T07:40:48.851Z,34.10
2023-07-18T07:44:12.357Z,34.00
2023-07-18T07:47:37.192Z,33.70
2023-07-18T07:51:01.549Z,33.30
2023-07-18T07:54:26.562Z,33.30
2023-07-18T07:57:50.077Z,33.00
2023-07-18T08:01:14.056Z,32.70
2023-07-18T08:04:39.585Z,32.40
2023-07-18T08:08:03.567Z,32.10
2023-07-18T08:11:28.440Z,31.90
2023-07-18T08:14:51.944Z,31.50
2023-07-18T08:18:15.506Z,31.70
2023-07-18T08:21:39.386Z,31.60
2023-07-18T08:25:02.996Z,32.20
2023-07-18T08:28:27.996Z,31.10
2023-07-18T08:31:51.524Z,31.10
2023-07-18T08:35:15.807Z,30.80
2023-07-18T08:38:40.427Z,30.50
2023-07-18T08:42:08.246Z,30.50
2023-07-18T08:45:38.587Z,30.10
2023-07-18T08:49:03.759Z,30.00
2023-07-18T08:52:27.457Z,30.00
2023-07-18T08:55:51.707Z,29.80
2023-07-18T08:59:15.916Z,29.70
2023-07-18T09:02:41.265Z,29.40
2023-07-18T09:06:05.967Z,29.00
2023-07-18T09:09:30.436Z,28.90
2023-07-18T09:12:54.581Z,28.70
2023-07-18T09:16:21.597Z,28.80
2023-07-18T09:19:49.595Z,29.00
2023-07-18T09:23:16.156Z,28.20
2023-07-18T09:26:40.937Z,28.00
2023-07-18T09:30:05.792Z,28.10
2023-07-18T09:33:31.072Z,27.80
2023-07-18T09:37:02.344Z,27.50
2023-07-18T09:40:27.905Z,27.40
2023-07-18T09:44:09.598Z,27.90
2023-07-18T09:47:41.313Z,27.80
2023-07-18T09:51:10.543Z,27.70
2023-07-18T09:54:35.851Z,27.70
2023-07-18T09:58:03.537Z,26.90
2023-07-18T10:01:27.435Z,26.80
2023-07-18T10:04:51.105Z,26.70
2023-07-18T10:08:14.865Z,26.60
2023-07-18T10:12:11.341Z,26.40
2023-07-18T10:16:20.919Z,26.10
2023-07-18T10:19:49.185Z,26.20
2023-07-18T10:23:12.983Z,26.20
2023-07-18T10:26:36.783Z,26.30
2023-07-18T10:30:07.169Z,26.50
2023-07-18T10:33:31.946Z,26.80
2023-07-18T10:36:58.561Z,26.90
2023-07-18T10:40:40.574Z,27.30
2023-07-18T10:44:04.647Z,27.80
2023-07-18T10:47:30.476Z,27.90
2023-07-18T10:50:54.146Z,28.60
2023-07-18T10:54:17.609Z,29.30
2023-07-18T10:57:41.325Z,29.90
2023-07-18T11:01:06.533Z,30.00
2023-07-18T11:04:33.193Z,30.70
2023-07-18T11:07:56.684Z,31.30
2023-07-18T11:11:20.566Z,31.20
2023-07-18T11:14:44.406Z,30.80
2023-07-18T11:18:09.588Z,30.30
2023-07-18T11:21:36.547Z,30.00
2023-07-18T11:28:31.035Z,29.80
2023-07-18T11:31:54.800Z,30.00
2023-07-18T11:35:22.916Z,30.00
2023-07-18T11:38:50.761Z,30.10
2023-07-18T11:42:14.442Z,30.30
2023-07-18T11:45:38.777Z,30.40
2023-07-18T11:49:03.161Z,30.90
2023-07-18T11:52:26.911Z,31.20
2023-07-18T11:55:57.520Z,31.50
2023-07-18T11:59:22.638Z,32.30
2023-07-18T12:02:46.805Z,33.40
2023-07-18T12:06:10.497Z,33.10
2023-07-18T12:09:34.167Z,33.50
2023-07-18T12:12:59.067Z,33.80
2023-07-18T12:16:22.884Z,34.20
2023-07-18T12:19:47.030Z,34.20
2023-07-18T12:23:10.754Z,34.60
2023-07-18T12:26:34.852Z,34.80
2023-07-18T12:29:59.790Z,35.00
2023-07-18T12:33:24.597Z,35.30
2023-07-18T12:36:48.445Z,35.50
2023-07-18T12:40:12.572Z,35.60
2023-07-18T12:43:36.168Z,35.60
2023-07-18T12:47:01.112Z,35.90
2023-07-18T12:50:27.037Z,35.90
2023-07-18T12:53:51.557Z,35.80
2023-07-18T12:57:15.074Z,35.80
2023-07-18T13:00:38.709Z,35.80
2023-07-18T13:04:04.997Z,35.80
2023-07-18T13:07:28.584Z,35.50
2023-07-18T13:10:52.446Z,35.20
2023-07-18T13:14:18.981Z,35.00
2023-07-18T13:17:42.833Z,34.80
2023-07-18T13:21:07.862Z,34.50
2023-07-18T13:24:31.368Z,34.30
2023-07-18T13:27:55.025Z,34.20
2023-07-18T13:31:18.682Z,34.30
2023-07-18T13:34:42.604Z,34.40
2023-07-18T13:38:08.602Z,34.80
2023-07-18T13:41:33.000Z,35.30
2023-07-18T13:44:56.697Z,35.70
2023-07-18T13:48:22.153Z,35.90
2023-07-18T13:51:46.089Z,35.90
2023-07-18T13:55:11.282Z,35.60
2023-07-18T13:58:35.004Z,35.40
2023-07-18T14:01:58.713Z,35.00
2023-07-18T14:05:22.648Z,34.70
2023-07-18T14:08:46.244Z,34.50
2023-07-18T14:12:13.174Z,34.30
2023-07-18T14:15:36.702Z,34.00
2023-07-18T14:19:00.567Z,34.00
2023-07-18T14:22:24.247Z,34.20
2023-07-18T14:25:49.021Z,34.10
2023-07-18T14:29:13.909Z,34.30
2023-07-18T14:32:39.475Z,34.20
2023-07-18T14:36:03.196Z,34.20
2023-07-18T14:39:26.913Z,34.40
2023-07-18T14:42:50.549Z,34.40
2023-07-18T14:46:15.817Z,34.60
2023-07-18T14:49:39.500Z,34.80
2023-07-18T14:53:03.332Z,34.90
2023-07-18T14:56:28.989Z,34.80
2023-07-18T14:59:52.513Z,34.80
2023-07-18T15:03:17.602Z,34.80
2023-07-18T15:06:41.484Z,34.90
2023-07-18T15:10:05.721Z,34.90
2023-07-18T15:13:29.310Z,35.00
2023-07-18T15:16:52.992Z,35.10
2023-07-18T15:20:18.303Z,35.20
2023-07-18T15:23:41.865Z,35.20
2023-07-18T15:27:06.492Z,35.10
2023-07-18T15:30:30.218Z,35.10
2023-07-18T15:33:53.953Z,35.20
2023-07-18T15:37:18.872Z,35.80
2023-07-18T15:40:42.509Z,35.00
2023-07-18T15:44:06.679Z,35.10
2023-07-18T15:47:30.288Z,35.20
2023-07-18T15:50:53.884Z,35.20
2023-07-18T15:54:19.282Z,35.50
2023-07-18T15:57:43.172Z,35.70
2023-07-18T16:01:07.183Z,35.80
2023-07-18T16:04:31.193Z,35.90
2023-07-18T16:07:55.003Z,36.00
2023-07-18T16:11:20.012Z,36.10
2023-07-18T16:14:43.633Z,36.10
2023-07-18T16:18:07.461Z,36.20
2023-07-18T16:21:31.849Z,36.30
2023-07-18T16:24:55.315Z,36.50
2023-07-18T16:28:20.343Z,36.60
2023-07-18T16:31:44.035Z,36.70
2023-07-18T16:35:09.438Z,36.80
2023-07-18T16:38:35.041Z,36.90
2023-07-18T16:42:09.562Z,36.90
2023-07-18T16:45:45.926Z,36.80
2023-07-18T16:49:09.738Z,36.90
2023-07-18T16:52:33.314Z,36.90
2023-07-18T16:55:57.283Z,37.00
2023-07-18T16:59:20.971Z,37.20
2023-07-18T17:02:45.972Z,37.40
2023-07-18T17:06:09.962Z,38.10
2023-07-18T17:09:33.565Z,37.60
2023-07-18T17:12:57.354Z,37.70
2023-07-18T17:16:21.746Z,38.40
2023-07-18T17:19:59.644Z,37.90
2023-07-18T17:23:30.632Z,38.00
2023-07-18T17:26:54.500Z,37.90
2023-07-18T17:30:18.076Z,37.80
2023-07-18T17:33:42.119Z,37.90
2023-07-18T17:37:08.556Z,37.90
2023-07-18T17:40:32.137Z,38.00
2023-07-18T17:43:55.667Z,38.00
2023-07-18T17:47:19.407Z,38.10
2023-07-18T17:50:43.562Z,38.30
2023-07-18T17:54:09.236Z,38.50
2023-07-18T17:57:32.906Z,38.90
2023-07-18T18:00:57.488Z,39.50
2023-07-18T18:04:20.984Z,39.70
2023-07-18T18:07:44.651Z,39.80
2023-07-18T18:11:09.953Z,40.00
2023-07-18T18:14:33.590Z,40.20
2023-07-18T18:17:57.341Z,40.30
2023-07-18T18:21:21.567Z,40.30
2023-07-18T18:24:45.509Z,40.50
2023-07-18T18:28:10.569Z,40.60
2023-07-18T18:31:34.249Z,40.70
2023-07-18T18:35:06.793Z,40.90
2023-07-18T18:38:32.729Z,41.10
2023-07-18T18:41:56.410Z,41.20
2023-07-18T18:45:21.720Z,41.30
2023-07-18T18:48:45.287Z,41.60
2023-07-18T18:52:09.683Z,41.80
2023-07-18T18:55:34.084Z,42.70
2023-07-18T18:58:58.066Z,42.70
2023-07-18T19:02:23.234Z,42.80
2023-07-18T19:05:48.442Z,43.50
2023-07-18T19:09:12.135Z,44.30
2023-07-18T19:12:35.828Z,45.80
2023-07-18T19:15:59.820Z,46.10
2023-07-18T19:19:26.512Z,46.90
2023-07-18T19:22:56.996Z,47.40
2023-07-18T19:26:21.462Z,47.50
2023-07-18T19:29:45.691Z,47.50
2023-07-18T19:33:09.411Z,49.10
2023-07-18T19:36:36.138Z,50.50
2023-07-18T19:39:59.678Z,52.50
2023-07-18T19:43:24.000Z,54.00
2023-07-18T19:46:47.761Z,55.30
2023-07-18T19:50:12.273Z,56.20
2023-07-18T19:53:37.837Z,57.20
2023-07-18T19:57:02.096Z,58.30
2023-07-18T20:00:25.948Z,59.10
2023-07-18T20:03:59.115Z,59.80
2023-07-18T20:07:23.828Z,59.80
2023-07-18T20:10:49.201Z,60.00
2023-07-18T20:14:13.056Z,60.40
2023-07-18T20:17:36.858Z,60.20
2023-07-18T20:21:00.688Z,59.80
2023-07-18T20:24:24.475Z,59.60
2023-07-18T20:27:49.453Z,59.30
2023-07-18T20:31:13.246Z,59.10
2023-07-18T20:34:37.032Z,58.70
2023-07-18T20:38:01.467Z,58.50
2023-07-18T20:41:25.245Z,58.30
2023-07-18T20:44:50.328Z,58.30
2023-07-18T20:48:14.023Z,59.00
2023-07-18T20:51:41.792Z,58.20
2023-07-18T20:55:06.154Z,58.20
2023-07-18T20:58:30.038Z,58.40
2023-07-18T21:01:55.036Z,58.40
2023-07-18T21:05:18.878Z,58.50
2023-07-18T21:08:42.678Z,58.50
2023-07-18T21:12:08.100Z,58.40
2023-07-18T21:15:33.188Z,58.50
2023-07-18T21:18:58.254Z,58.40
2023-07-18T21:22:21.934Z,58.50
2023-07-18T21:25:45.630Z,58.30
2023-07-18T21:29:09.226Z,58.30
2023-07-18T21:32:32.908Z,58.50
2023-07-18T21:35:58.311Z,58.40
2023-07-18T21:39:21.938Z,58.70
2023-07-18T21:42:45.622Z,58.60
2023-07-18T21:46:09.866Z,58.60
2023-07-18T21:49:33.506Z,59.30
2023-07-18T21:52:58.529Z,58.60
2023-07-18T21:56:22.270Z,58.80
2023-07-18T21:59:45.954Z,58.70
2023-07-18T22:03:09.636Z,58.80
2023-07-18T22:06:33.340Z,58.60
2023-07-18T22:09:58.350Z,58.70
2023-07-18T22:13:23.678Z,58.60
2023-07-18T22:16:47.369Z,58.60
2023-07-18T22:20:12.262Z,58.50
2023-07-18T22:23:35.902Z,58.60
2023-07-18T22:27:00.812Z,58.70
2023-07-18T22:30:24.599Z,58.80
2023-07-18T22:33:48.187Z,58.90
2023-07-18T22:37:12.167Z,59.10
2023-07-18T22:40:35.783Z,59.20
2023-07-18T22:44:00.837Z,59.30
2023-07-18T22:47:24.415Z,59.60
2023-07-18T22:50:48.745Z,59.50
2023-07-18T22:54:12.262Z,59.60
2023-07-18T22:57:36.110Z,59.60
2023-07-18T23:01:01.347Z,59.60
2023-07-18T23:04:25.389Z,59.80
2023-07-18T23:07:48.923Z,59.80
2023-07-18T23:11:12.556Z,59.80
2023-07-18T23:14:36.085Z,59.70
2023-07-18T23:18:01.130Z,59.70
2023-07-18T23:21:25.805Z,59.60
2023-07-18T23:24:49.331Z,59.60
2023-07-18T23:28:15.877Z,59.70
2023-07-18T23:31:39.844Z,59.40
2023-07-18T23:47:17.257Z,59.70
2023-07-18T23:50:40.709Z,59.80
2023-07-18T23:54:04.232Z,59.30
2023-07-18T23:57:27.872Z,59.40
